Time;durP1;ratioP1;P1;durP2;ratioP2;P2;SDS_P1;SDS_P2;PMS_P1;PMS_P2;Temp;Humidity;BMP_temperature;BMP_pressure;BME280_temperature;BME280_humidity;BME280_pressure;Samples;Min_cycle;Max_cycle;Signal;HPM_P1;HPM_P2
2022/03/30 00:04:36;;;;;;;48.92;25.77;;;;;;;11.99;83.21;99277.91;21032371;28;20463;-72
2022/03/30 00:14:38;;;;;;;47.47;25.83;;;;;;;11.93;88.92;99270.28;21032015;28;20056;-71
2022/03/30 00:24:43;;;;;;;54.85;27.23;;;;;;;11.78;93.18;99271.69;21030424;28;20051;-70
2022/03/30 00:34:45;;;;;;;52.58;23.13;;;;;;;11.53;87.23;99281.41;21027755;28;20465;-72
2022/03/30 00:44:47;;;;;;;50.38;22.75;;;;;;;11.00;96.05;99271.97;21027725;28;20056;-71
2022/03/30 00:54:50;;;;;;;46.10;21.45;;;;;;;10.84;97.85;99252.50;21026890;28;20049;-70
2022/03/30 01:04:52;;;;;;;42.15;20.88;;;;;;;10.80;98.49;99248.25;21023326;28;20045;-72
2022/03/30 01:14:53;;;;;;;40.67;23.38;;;;;;;10.68;100.00;99217.25;21028234;28;20075;-73
2022/03/30 01:24:55;;;;;;;39.13;21.83;;;;;;;10.74;100.00;99196.97;21026971;28;20441;-72
2022/03/30 01:35:01;;;;;;;39.97;23.08;;;;;;;10.76;100.00;99173.34;21024530;28;20067;-72
2022/03/30 01:45:03;;;;;;;40.65;22.08;;;;;;;10.45;100.00;99161.34;21021088;28;20071;-71
2022/03/30 01:55:05;;;;;;;40.55;20.55;;;;;;;10.57;100.00;99146.13;21025535;28;20055;-72
2022/03/30 02:05:08;;;;;;;38.35;19.70;;;;;;;10.60;100.00;99122.47;21037042;28;20044;-71
2022/03/30 02:15:10;;;;;;;39.53;20.95;;;;;;;10.44;100.00;99109.94;21035891;28;20593;-71
2022/03/30 02:25:12;;;;;;;40.83;22.23;;;;;;;10.17;100.00;99092.56;21038805;28;20044;-71
2022/03/30 02:35:14;;;;;;;44.05;23.83;;;;;;;10.08;100.00;99074.56;21037711;28;20048;-72
2022/03/30 02:45:16;;;;;;;43.20;24.15;;;;;;;10.13;100.00;99077.88;21038572;28;20110;-71
2022/03/30 02:55:17;;;;;;;44.05;23.83;;;;;;;10.14;100.00;99092.66;21037907;28;20044;-72
2022/03/30 03:05:19;;;;;;;42.90;23.95;;;;;;;9.93;100.00;99097.72;21036383;28;20048;-71
2022/03/30 03:15:22;;;;;;;45.03;24.95;;;;;;;9.90;100.00;99108.28;21027940;28;20094;-71
2022/03/30 03:25:23;;;;;;;44.15;24.65;;;;;;;9.83;100.00;99106.78;21034613;28;20058;-71
2022/03/30 03:35:25;;;;;;;48.97;24.20;;;;;;;9.90;100.00;99116.13;21034503;28;20055;-73
2022/03/30 03:45:28;;;;;;;36.17;21.63;;;;;;;9.92;100.00;99105.63;21034799;28;20056;-72
2022/03/30 03:55:33;;;;;;;35.38;20.67;;;;;;;9.90;100.00;99108.28;21032132;28;20048;-71
2022/03/30 04:05:35;;;;;;;39.63;21.48;;;;;;;10.00;100.00;99101.81;21030532;28;20094;-72
2022/03/30 04:15:37;;;;;;;37.15;20.42;;;;;;;10.03;100.00;99103.50;21030204;28;20041;-72
2022/03/30 04:25:39;;;;;;;34.50;20.42;;;;;;;10.10;100.00;99091.91;21025123;28;20094;-72
2022/03/30 04:35:41;;;;;;;32.90;19.27;;;;;;;10.16;100.00;99083.00;21027590;28;20052;-72
2022/03/30 04:45:42;;;;;;;37.05;22.90;;;;;;;10.19;100.00;99082.88;21027731;28;20044;-72
2022/03/30 04:55:44;;;;;;;44.17;23.92;;;;;;;10.06;100.00;99072.03;21027557;28;20312;-72
2022/03/30 05:05:45;;;;;;;43.80;22.42;;;;;;;10.03;100.00;99072.97;21025732;28;20437;-72
2022/03/30 05:15:47;;;;;;;45.70;21.40;;;;;;;10.03;100.00;99052.03;21026541;28;20129;-73
2022/03/30 05:25:48;;;;;;;45.15;21.70;;;;;;;9.99;100.00;99055.66;21026207;28;20547;-73
2022/03/30 05:35:50;;;;;;;39.60;21.13;;;;;;;10.02;100.00;99047.72;21025696;28;20059;-74
2022/03/30 05:45:51;;;;;;;42.58;24.25;;;;;;;9.91;100.00;99031.53;21017851;28;20044;-73
2022/03/30 05:55:55;;;;;;;50.75;24.70;;;;;;;9.98;100.00;99029.59;21020371;28;20485;-73
2022/03/30 06:05:56;;;;;;;50.15;26.10;;;;;;;9.99;100.00;99032.13;21016384;28;20040;-72
2022/03/30 06:15:58;;;;;;;59.28;29.45;;;;;;;9.97;100.00;99035.72;21008816;28;20044;-73
2022/03/30 06:26:01;;;;;;;63.50;31.33;;;;;;;9.84;100.00;99045.75;20998738;28;20143;-72
2022/03/30 06:36:02;;;;;;;63.15;31.58;;;;;;;9.84;100.00;99039.66;20991366;28;20060;-71
2022/03/30 06:46:04;;;;;;;54.78;28.38;;;;;;;9.68;100.00;99041.97;21003654;28;20062;-71
2022/03/30 06:56:06;;;;;;;55.35;30.48;;;;;;;9.64;100.00;99048.19;21032838;28;20062;-71
2022/03/30 07:06:07;;;;;;;66.13;32.70;;;;;;;9.70;100.00;99042.75;21022622;28;20122;-73
2022/03/30 07:16:09;;;;;;;39.88;21.90;;;;;;;8.78;100.00;99048.31;21019092;28;20051;-76
2022/03/30 07:26:11;;;;;;;45.50;22.90;;;;;;;8.47;100.00;99030.94;21024906;28;20056;-76
2022/03/30 07:36:13;;;;;;;52.78;25.15;;;;;;;8.26;100.00;99035.91;21023535;28;20461;-73
2022/03/30 07:46:14;;;;;;;60.00;28.92;;;;;;;7.81;100.00;99044.06;21025440;28;20048;-72
2022/03/30 07:56:16;;;;;;;60.90;29.42;;;;;;;7.62;100.00;99046.31;21023861;28;20044;-73
2022/03/30 08:06:18;;;;;;;74.25;35.47;;;;;;;7.70;100.00;99046.94;21024576;28;20438;-73
2022/03/30 08:16:20;;;;;;;77.68;33.33;;;;;;;7.59;100.00;99059.41;21022818;28;20048;-74
2022/03/30 08:26:21;;;;;;;77.13;34.00;;;;;;;7.57;100.00;99050.75;21024505;28;20481;-76
2022/03/30 08:36:23;;;;;;;80.57;36.58;;;;;;;7.50;100.00;99054.41;21015469;28;20444;-72
2022/03/30 08:46:24;;;;;;;91.40;38.85;;;;;;;7.39;100.00;99058.13;21019059;28;20662;-76
2022/03/30 08:56:28;;;;;;;95.88;40.15;;;;;;;7.26;100.00;99061.91;21018983;28;20044;-73
2022/03/30 09:06:42;;;;;;;102.85;42.50;;;;;;;7.31;100.00;99064.41;21014259;28;20052;-73
2022/03/30 09:16:52;;;;;;;105.43;43.72;;;;;;;7.31;100.00;99060.06;21014782;28;20048;-73
2022/03/30 09:26:55;;;;;;;99.28;41.95;;;;;;;7.20;100.00;99072.50;21007258;28;20058;-73
2022/03/30 09:36:57;;;;;;;88.90;40.38;;;;;;;7.20;100.00;99067.28;21016366;28;20048;-73
2022/03/30 09:47:05;;;;;;;95.85;42.55;;;;;;;7.20;100.00;99072.50;21016186;28;20059;-74
2022/03/30 09:57:27;;;;;;;102.10;42.33;;;;;;;7.27;100.00;99066.22;21017071;28;20044;-74
2022/03/30 10:07:29;;;;;;;104.13;43.42;;;;;;;7.30;100.00;99057.50;21014968;28;20052;-75
2022/03/30 10:17:31;;;;;;;100.90;43.72;;;;;;;7.31;100.00;99049.66;21014664;28;20056;-75
2022/03/30 10:27:43;;;;;;;89.40;40.92;;;;;;;7.39;100.00;99045.13;21029353;28;20071;-75
2022/03/30 10:37:57;;;;;;;91.05;39.67;;;;;;;7.22;100.00;99036.84;21028068;28;20094;-73
2022/03/30 10:48:10;;;;;;;87.40;38.60;;;;;;;7.31;100.00;99046.19;21028716;28;20498;-72
2022/03/30 10:58:16;;;;;;;97.43;41.35;;;;;;;7.54;100.00;99032.59;21029525;28;20135;-73
2022/03/30 11:08:33;;;;;;;89.15;39.83;;;;;;;7.59;100.00;99029.00;21028795;28;20443;-74
2022/03/30 11:18:35;;;;;;;75.65;35.67;;;;;;;7.41;100.00;99019.03;21024647;28;20048;-73
2022/03/30 11:28:38;;;;;;;78.57;35.40;;;;;;;7.65;100.00;99004.53;21027345;28;20053;-73
2022/03/30 11:38:44;;;;;;;81.22;35.83;;;;;;;8.22;100.00;99004.69;21024551;28;20673;-75
2022/03/30 11:48:46;;;;;;;69.30;33.17;;;;;;;8.30;100.00;99003.63;21024838;28;20056;-73
2022/03/30 11:58:56;;;;;;;69.50;33.95;;;;;;;8.57;100.00;98999.38;21023635;28;20584;-73
2022/03/30 12:08:58;;;;;;;65.63;31.83;;;;;;;8.71;100.00;98987.59;21021869;28;20045;-72
2022/03/30 12:19:00;;;;;;;71.22;32.22;;;;;;;8.84;100.00;98982.88;21021138;28;20048;-74
2022/03/30 12:29:14;;;;;;;70.95;34.15;;;;;;;9.00;100.00;98978.84;21027847;28;20494;-74
2022/03/30 12:39:27;;;;;;;68.80;33.45;;;;;;;9.32;100.00;98974.34;21021575;28;20440;-73
2022/03/30 12:49:39;;;;;;;59.95;30.73;;;;;;;9.30;100.00;98965.72;21029610;28;20084;-74
2022/03/30 12:59:41;;;;;;;60.95;31.80;;;;;;;9.42;100.00;98962.69;21020794;28;20134;-79
2022/03/30 13:09:59;;;;;;;86.50;46.90;;;;;;;9.78;100.00;98949.25;21036578;28;20123;-73
2022/03/30 13:20:02;;;;;;;66.55;35.55;;;;;;;9.71;100.00;98932.06;21036415;28;20097;-72
2022/03/30 13:30:05;;;;;;;61.83;30.38;;;;;;;9.85;98.83;98937.66;21028151;28;20062;-75
2022/03/30 13:40:08;;;;;;;56.58;29.45;;;;;;;9.85;99.32;98919.34;21039137;28;20101;-73
2022/03/30 13:50:13;;;;;;;57.95;30.95;;;;;;;10.28;98.09;98909.94;21016259;28;20870;-72
2022/03/30 14:00:17;;;;;;;78.32;36.53;;;;;;;10.10;96.30;98890.53;21045213;28;20048;-73
2022/03/30 14:10:21;;;;;;;52.17;27.50;;;;;;;9.98;96.56;98902.31;21023107;28;20063;-74
2022/03/30 14:20:22;;;;;;;50.03;28.02;;;;;;;10.32;94.45;98880.13;21023119;28;20045;-72
2022/03/30 14:30:24;;;;;;;55.97;29.17;;;;;;;10.34;92.77;98865.22;21028558;28;20429;-73
2022/03/30 14:40:26;;;;;;;49.55;28.10;;;;;;;10.55;91.09;98857.47;21031931;28;20048;-74
2022/03/30 14:50:28;;;;;;;46.30;26.20;;;;;;;10.59;88.50;98859.00;21028735;28;20121;-72
2022/03/30 15:00:30;;;;;;;46.90;25.83;;;;;;;10.55;90.21;98839.13;21028972;28;20040;-73
2022/03/30 15:10:31;;;;;;;40.25;23.33;;;;;;;10.36;85.54;98839.88;21029986;28;20070;-73
2022/03/30 15:20:34;;;;;;;40.55;21.38;;;;;;;10.67;84.07;98842.09;21025487;28;20044;-72
2022/03/30 15:30:35;;;;;;;38.45;22.20;;;;;;;10.60;82.07;98839.78;21022686;28;20045;-73
2022/03/30 15:40:37;;;;;;;34.13;18.95;;;;;;;10.45;83.00;98842.13;21025964;28;20052;-72
2022/03/30 15:50:39;;;;;;;33.45;21.58;;;;;;;10.70;83.18;98825.41;21023805;28;20177;-72
2022/03/30 16:00:40;;;;;;;57.55;31.05;;;;;;;10.57;83.55;98817.22;21024034;28;20103;-72
2022/03/30 16:10:45;;;;;;;45.20;24.77;;;;;;;10.44;82.98;98810.75;21024511;28;20044;-72
2022/03/30 16:20:47;;;;;;;40.30;23.47;;;;;;;10.34;84.45;98815.50;21022351;28;20499;-73
2022/03/30 16:30:48;;;;;;;42.15;23.65;;;;;;;10.52;82.97;98806.94;21020237;28;20052;-72
2022/03/30 16:40:51;;;;;;;39.75;23.25;;;;;;;10.53;86.12;98805.16;21020380;28;20059;-72
2022/03/30 16:50:54;;;;;;;38.28;21.67;;;;;;;10.46;84.46;98801.94;21010498;28;20059;-72
2022/03/30 17:01:00;;;;;;;40.65;23.20;;;;;;;10.31;85.82;98810.44;20962186;28;20036;-71
2022/03/30 17:11:02;;;;;;;40.63;23.55;;;;;;;10.26;86.69;98823.69;20951019;28;20478;-71
2022/03/30 17:21:04;;;;;;;41.97;24.38;;;;;;;10.17;87.12;98810.09;20953276;28;20048;-70
2022/03/30 17:31:06;;;;;;;38.65;21.88;;;;;;;10.00;86.99;98808.13;20952278;28;20631;-70
2022/03/30 17:41:08;;;;;;;40.60;23.02;;;;;;;9.79;89.62;98807.19;20955147;28;20528;-70
2022/03/30 18:01:34;;;;;;;43.33;24.90;;;;;;;9.30;91.67;98822.06;20958461;28;20044;-71
2022/03/30 18:11:37;;;;;;;45.47;26.52;;;;;;;9.13;93.78;98822.66;20961006;28;20072;-70
2022/03/30 18:21:59;;;;;;;51.78;29.60;;;;;;;8.95;95.50;98823.28;20950968;28;20060;-70
2022/03/30 18:32:00;;;;;;;40.00;22.88;;;;;;;8.58;97.44;98824.53;20955830;28;20818;-70
2022/03/30 18:42:02;;;;;;;41.28;21.80;;;;;;;8.24;100.00;98840.41;20960254;28;20052;-71
2022/03/30 18:52:04;;;;;;;38.53;21.05;;;;;;;8.00;100.00;98843.72;20971380;28;20052;-71
2022/03/30 19:02:07;;;;;;;40.25;21.80;;;;;;;7.75;100.00;98846.22;20975120;28;20524;-71
2022/03/30 19:12:09;;;;;;;43.40;22.95;;;;;;;7.66;100.00;98858.59;20970358;28;20071;-71
2022/03/30 19:22:10;;;;;;;43.97;23.73;;;;;;;7.47;100.00;98857.41;20971982;28;20056;-71
2022/03/30 19:32:12;;;;;;;41.78;23.20;;;;;;;7.36;100.00;98868.13;20968929;28;20059;-71
2022/03/30 19:42:13;;;;;;;43.28;23.00;;;;;;;7.38;100.00;98858.53;20968771;28;20057;-71
2022/03/30 19:52:15;;;;;;;45.78;23.60;;;;;;;7.40;100.00;98856.75;20969941;28;20044;-71
2022/03/30 20:02:17;;;;;;;44.78;24.42;;;;;;;7.28;100.00;98851.88;20969580;28;20067;-71
2022/03/30 20:12:18;;;;;;;50.55;26.75;;;;;;;7.05;100.00;98844.69;20961111;28;20411;-71
2022/03/30 20:22:20;;;;;;;49.55;26.40;;;;;;;6.98;100.00;98847.47;20966797;28;20056;-71
2022/03/30 20:32:22;;;;;;;55.30;27.90;;;;;;;6.76;100.00;98847.19;20956942;28;20452;-69
2022/03/30 20:42:23;;;;;;;53.90;28.05;;;;;;;6.65;100.00;98842.22;20961369;28;20052;-69
2022/03/30 20:52:26;;;;;;;54.13;28.23;;;;;;;6.56;100.00;98842.44;20961285;28;20048;-69
2022/03/30 21:02:28;;;;;;;53.60;28.05;;;;;;;6.41;100.00;98839.34;21013254;28;20051;-69
2022/03/30 21:12:29;;;;;;;64.78;32.80;;;;;;;6.46;100.00;98822.78;21016766;28;20049;-68
2022/03/30 21:22:31;;;;;;;61.33;30.52;;;;;;;6.43;100.00;98819.38;21016208;28;20067;-70
2022/03/30 21:32:32;;;;;;;64.40;31.27;;;;;;;6.41;100.00;98805.53;21015514;28;20040;-68
2022/03/30 21:42:34;;;;;;;66.65;33.55;;;;;;;6.35;100.00;98820.44;21017736;28;20048;-69
2022/03/30 21:52:36;;;;;;;56.33;29.52;;;;;;;6.28;100.00;98811.09;21016613;28;20479;-69
2022/03/30 22:02:39;;;;;;;57.03;28.67;;;;;;;6.14;100.00;98809.66;21015080;28;20102;-70
2022/03/30 22:12:41;;;;;;;62.20;30.02;;;;;;;6.05;100.00;98817.66;21022560;28;20047;-69
2022/03/30 22:22:43;;;;;;;54.97;27.50;;;;;;;5.77;100.00;98807.00;21030533;28;20493;-69
2022/03/30 22:43:05;;;;;;;72.45;31.77;;;;;;;5.79;100.00;98789.63;21033970;28;20060;-69
2022/03/30 22:53:07;;;;;;;67.32;31.73;;;;;;;5.76;100.00;98774.16;21036543;28;20049;-71
2022/03/30 23:03:09;;;;;;;73.85;34.58;;;;;;;5.87;100.00;98777.34;21035865;28;20060;-69
2022/03/30 23:13:13;;;;;;;79.75;35.28;;;;;;;5.99;100.00;98764.97;21035358;28;20148;-69
2022/03/30 23:23:16;;;;;;;69.00;32.50;;;;;;;6.02;100.00;98752.78;21034171;28;20062;-68
2022/03/30 23:33:18;;;;;;;71.68;32.67;;;;;;;5.73;100.00;98749.97;21032015;28;20501;-69
2022/03/30 23:43:19;;;;;;;70.15;33.40;;;;;;;5.57;100.00;98741.69;21032675;28;20054;-68
2022/03/30 23:53:21;;;;;;;70.85;32.25;;;;;;;5.67;100.00;98740.59;21030529;28;20106;-69
